sensor_id;sensor_type;location;lat;lon;timestamp;temperature;humidity
3268;DHT22;1646;52.450;13.326;2024-01-11T00:00:08;-2.70;99.90
3268;DHT22;1646;52.450;13.326;2024-01-11T00:05:07;-2.80;99.90
3268;DHT22;1646;52.450;13.326;2024-01-11T00:10:07;-3.00;99.90
3268;DHT22;1646;52.450;13.326;2024-01-11T00:15:06;-3.00;99.90
3268;DHT22;1646;52.450;13.326;2024-01-11T00:20:06;-3.10;99.90
3268;DHT22;1646;52.450;13.326;2024-01-11T00:25:05;-3.20;99.90
3268;DHT22;1646;52.450;13.326;2024-01-11T00:30:06;-3.30;99.90
3268;DHT22;1646;52.450;13.326;2024-01-11T00:35:06;-3.30;99.90
3268;DHT22;1646;52.450;13.326;2024-01-11T00:40:05;-3.30;99.90
3268;DHT22;1646;52.450;13.326;2024-01-11T00:45:06;-3.40;99.90
3268;DHT22;1646;52.450;13.326;2024-01-11T00:50:05;-3.40;99.90
3268;DHT22;1646;52.450;13.326;2024-01-11T00:55:04;-3.40;99.90
3268;DHT22;1646;52.450;13.326;2024-01-11T01:00:05;-3.60;99.90
3268;DHT22;1646;52.450;13.326;2024-01-11T01:05:04;-3.70;99.90
3268;DHT22;1646;52.450;13.326;2024-01-11T01:10:03;-3.80;99.90
3268;DHT22;1646;52.450;13.326;2024-01-11T01:15:02;-3.90;99.90
3268;DHT22;1646;52.450;13.326;2024-01-11T01:20:01;-4.10;99.90
3268;DHT22;1646;52.450;13.326;2024-01-11T01:25:00;-4.30;99.90
3268;DHT22;1646;52.450;13.326;2024-01-11T01:29:58;-4.70;99.90
3268;DHT22;1646;52.450;13.326;2024-01-11T01:34:57;-4.70;99.90
3268;DHT22;1646;52.450;13.326;2024-01-11T01:39:56;-4.70;99.90
3268;DHT22;1646;52.450;13.326;2024-01-11T01:44:54;-4.60;99.90
3268;DHT22;1646;52.450;13.326;2024-01-11T01:49:53;-4.70;99.90
3268;DHT22;1646;52.450;13.326;2024-01-11T01:54:53;-4.60;99.90
3268;DHT22;1646;52.450;13.326;2024-01-11T01:59:53;-4.70;99.90
3268;DHT22;1646;52.450;13.326;2024-01-11T02:04:52;-4.60;99.90
3268;DHT22;1646;52.450;13.326;2024-01-11T02:09:52;-4.60;99.90
3268;DHT22;1646;52.450;13.326;2024-01-11T02:14:52;-4.60;99.90
3268;DHT22;1646;52.450;13.326;2024-01-11T02:19:51;-4.50;99.90
3268;DHT22;1646;52.450;13.326;2024-01-11T02:24:51;-4.50;99.90
3268;DHT22;1646;52.450;13.326;2024-01-11T02:29:50;-4.40;99.90
3268;DHT22;1646;52.450;13.326;2024-01-11T02:34:48;-4.30;99.90
3268;DHT22;1646;52.450;13.326;2024-01-11T02:39:46;-4.20;99.90
3268;DHT22;1646;52.450;13.326;2024-01-11T02:44:47;-4.20;99.90
3268;DHT22;1646;52.450;13.326;2024-01-11T02:49:45;-4.20;99.90
3268;DHT22;1646;52.450;13.326;2024-01-11T02:54:43;-4.20;99.90
3268;DHT22;1646;52.450;13.326;2024-01-11T02:59:43;-4.20;99.90
3268;DHT22;1646;52.450;13.326;2024-01-11T03:04:43;-4.20;99.90
3268;DHT22;1646;52.450;13.326;2024-01-11T03:09:41;-4.40;99.90
3268;DHT22;1646;52.450;13.326;2024-01-11T03:14:39;-4.40;99.90
3268;DHT22;1646;52.450;13.326;2024-01-11T03:19:39;-4.40;99.90
3268;DHT22;1646;52.450;13.326;2024-01-11T03:24:39;-4.60;99.90
3268;DHT22;1646;52.450;13.326;2024-01-11T03:29:38;-4.60;99.90
3268;DHT22;1646;52.450;13.326;2024-01-11T03:34:36;-4.60;99.90
3268;DHT22;1646;52.450;13.326;2024-01-11T03:39:34;-4.60;99.90
3268;DHT22;1646;52.450;13.326;2024-01-11T03:44:36;-4.60;99.90
3268;DHT22;1646;52.450;13.326;2024-01-11T03:49:34;-4.60;99.90
3268;DHT22;1646;52.450;13.326;2024-01-11T03:54:33;-4.60;99.90
3268;DHT22;1646;52.450;13.326;2024-01-11T03:59:31;-4.70;99.90
3268;DHT22;1646;52.450;13.326;2024-01-11T04:04:31;-4.60;99.90
3268;DHT22;1646;52.450;13.326;2024-01-11T04:09:29;-4.60;99.90
3268;DHT22;1646;52.450;13.326;2024-01-11T04:14:28;-4.40;99.90
3268;DHT22;1646;52.450;13.326;2024-01-11T04:19:26;-4.30;99.90
3268;DHT22;1646;52.450;13.326;2024-01-11T04:24:26;-4.30;99.90
3268;DHT22;1646;52.450;13.326;2024-01-11T04:29:24;-4.20;99.90
3268;DHT22;1646;52.450;13.326;2024-01-11T04:34:22;-4.20;99.90
3268;DHT22;1646;52.450;13.326;2024-01-11T04:39:21;-4.10;99.90
3268;DHT22;1646;52.450;13.326;2024-01-11T04:44:20;-4.00;99.90
3268;DHT22;1646;52.450;13.326;2024-01-11T04:49:22;-3.90;99.90
3268;DHT22;1646;52.450;13.326;2024-01-11T04:54:20;-3.90;99.90
3268;DHT22;1646;52.450;13.326;2024-01-11T04:59:20;-3.80;99.90
3268;DHT22;1646;52.450;13.326;2024-01-11T05:04:18;-3.70;99.90
3268;DHT22;1646;52.450;13.326;2024-01-11T05:09:16;-3.80;99.90
3268;DHT22;1646;52.450;13.326;2024-01-11T05:14:15;-3.80;99.90
3268;DHT22;1646;52.450;13.326;2024-01-11T05:19:14;-3.80;99.90
3268;DHT22;1646;52.450;13.326;2024-01-11T05:24:13;-3.80;99.90
3268;DHT22;1646;52.450;13.326;2024-01-11T05:29:11;-3.70;99.90
3268;DHT22;1646;52.450;13.326;2024-01-11T05:34:09;-3.50;99.90
3268;DHT22;1646;52.450;13.326;2024-01-11T05:39:11;-3.40;99.90
3268;DHT22;1646;52.450;13.326;2024-01-11T05:44:09;-3.20;99.90
3268;DHT22;1646;52.450;13.326;2024-01-11T05:49:07;-3.00;99.90
3268;DHT22;1646;52.450;13.326;2024-01-11T05:54:06;-3.00;99.90
3268;DHT22;1646;52.450;13.326;2024-01-11T05:59:06;-3.00;99.90
3268;DHT22;1646;52.450;13.326;2024-01-11T06:04:04;-3.00;99.90
3268;DHT22;1646;52.450;13.326;2024-01-11T06:09:02;-3.20;99.90
3268;DHT22;1646;52.450;13.326;2024-01-11T06:14:01;-3.20;99.90
3268;DHT22;1646;52.450;13.326;2024-01-11T06:19:01;-3.20;99.90
3268;DHT22;1646;52.450;13.326;2024-01-11T06:24:00;-3.00;99.90
3268;DHT22;1646;52.450;13.326;2024-01-11T06:29:00;-2.80;99.90
3268;DHT22;1646;52.450;13.326;2024-01-11T06:33:58;-2.70;99.90
3268;DHT22;1646;52.450;13.326;2024-01-11T06:38:58;-2.70;99.90
3268;DHT22;1646;52.450;13.326;2024-01-11T06:43:56;-2.70;99.90
3268;DHT22;1646;52.450;13.326;2024-01-11T06:48:57;-2.60;99.90
3268;DHT22;1646;52.450;13.326;2024-01-11T06:53:56;-2.60;99.90
3268;DHT22;1646;52.450;13.326;2024-01-11T06:58:56;-2.60;99.90
3268;DHT22;1646;52.450;13.326;2024-01-11T07:03:54;-2.70;99.90
3268;DHT22;1646;52.450;13.326;2024-01-11T07:08:53;-2.70;99.90
3268;DHT22;1646;52.450;13.326;2024-01-11T07:13:51;-2.70;99.90
3268;DHT22;1646;52.450;13.326;2024-01-11T07:18:52;-2.50;99.90
3268;DHT22;1646;52.450;13.326;2024-01-11T07:23:50;-2.50;99.90
3268;DHT22;1646;52.450;13.326;2024-01-11T07:28:49;-2.60;99.90
3268;DHT22;1646;52.450;13.326;2024-01-11T07:33:47;-2.60;99.90
3268;DHT22;1646;52.450;13.326;2024-01-11T07:38:47;-2.40;99.90
3268;DHT22;1646;52.450;13.326;2024-01-11T07:43:46;-2.30;99.90
3268;DHT22;1646;52.450;13.326;2024-01-11T07:48:51;-2.20;99.90
3268;DHT22;1646;52.450;13.326;2024-01-11T07:53:50;-2.10;99.90
3268;DHT22;1646;52.450;13.326;2024-01-11T07:58:49;-2.10;99.90
3268;DHT22;1646;52.450;13.326;2024-01-11T08:03:47;-2.00;99.90
3268;DHT22;1646;52.450;13.326;2024-01-11T08:08:51;-2.00;99.90
3268;DHT22;1646;52.450;13.326;2024-01-11T08:13:50;-2.10;99.90
3268;DHT22;1646;52.450;13.326;2024-01-11T08:18:50;-2.10;99.90
3268;DHT22;1646;52.450;13.326;2024-01-11T08:23:48;-2.00;99.90
3268;DHT22;1646;52.450;13.326;2024-01-11T08:28:48;-2.00;99.90
3268;DHT22;1646;52.450;13.326;2024-01-11T08:33:46;-2.10;99.90
3268;DHT22;1646;52.450;13.326;2024-01-11T08:38:45;-2.10;99.90
3268;DHT22;1646;52.450;13.326;2024-01-11T08:43:43;-1.90;99.90
3268;DHT22;1646;52.450;13.326;2024-01-11T08:48:43;-1.90;99.90
3268;DHT22;1646;52.450;13.326;2024-01-11T08:53:41;-1.70;99.90
3268;DHT22;1646;52.450;13.326;2024-01-11T08:58:40;-1.80;99.90
3268;DHT22;1646;52.450;13.326;2024-01-11T09:03:38;-1.80;99.90
3268;DHT22;1646;52.450;13.326;2024-01-11T09:08:38;-1.80;99.90
3268;DHT22;1646;52.450;13.326;2024-01-11T09:13:38;-1.80;99.90
3268;DHT22;1646;52.450;13.326;2024-01-11T09:18:37;-1.60;99.90
3268;DHT22;1646;52.450;13.326;2024-01-11T09:23:40;-1.50;99.90
3268;DHT22;1646;52.450;13.326;2024-01-11T09:28:38;-1.50;99.90
3268;DHT22;1646;52.450;13.326;2024-01-11T09:33:36;-1.40;99.90
3268;DHT22;1646;52.450;13.326;2024-01-11T09:38:35;-1.50;99.90
3268;DHT22;1646;52.450;13.326;2024-01-11T09:43:36;-1.60;99.90
3268;DHT22;1646;52.450;13.326;2024-01-11T09:48:38;-1.60;99.90
3268;DHT22;1646;52.450;13.326;2024-01-11T09:53:38;-1.60;99.90
3268;DHT22;1646;52.450;13.326;2024-01-11T09:58:40;-1.60;99.90
3268;DHT22;1646;52.450;13.326;2024-01-11T10:03:43;-1.60;99.90
3268;DHT22;1646;52.450;13.326;2024-01-11T10:08:42;-1.50;99.90
3268;DHT22;1646;52.450;13.326;2024-01-11T10:13:42;-1.50;99.90
3268;DHT22;1646;52.450;13.326;2024-01-11T10:18:41;-1.60;99.90
3268;DHT22;1646;52.450;13.326;2024-01-11T10:23:39;-1.60;99.90
3268;DHT22;1646;52.450;13.326;2024-01-11T10:28:38;-1.60;99.90
3268;DHT22;1646;52.450;13.326;2024-01-11T10:33:38;-1.70;99.90
3268;DHT22;1646;52.450;13.326;2024-01-11T10:38:37;-1.90;99.90
3268;DHT22;1646;52.450;13.326;2024-01-11T10:43:37;-1.90;99.90
3268;DHT22;1646;52.450;13.326;2024-01-11T10:48:39;-1.80;99.90
3268;DHT22;1646;52.450;13.326;2024-01-11T10:53:41;-1.80;99.90
3268;DHT22;1646;52.450;13.326;2024-01-11T10:58:42;-1.70;99.90
3268;DHT22;1646;52.450;13.326;2024-01-11T11:03:43;-1.60;99.90
3268;DHT22;1646;52.450;13.326;2024-01-11T11:08:43;-1.40;99.90
3268;DHT22;1646;52.450;13.326;2024-01-11T11:13:43;-1.30;99.90
3268;DHT22;1646;52.450;13.326;2024-01-11T11:18:46;-1.20;99.90
3268;DHT22;1646;52.450;13.326;2024-01-11T11:23:44;-1.20;99.90
3268;DHT22;1646;52.450;13.326;2024-01-11T11:28:43;-1.00;99.90
3268;DHT22;1646;52.450;13.326;2024-01-11T11:33:42;-1.00;99.90
3268;DHT22;1646;52.450;13.326;2024-01-11T11:38:41;-0.90;99.90
3268;DHT22;1646;52.450;13.326;2024-01-11T11:43:40;-1.00;99.90
3268;DHT22;1646;52.450;13.326;2024-01-11T11:48:51;-1.00;99.90
3268;DHT22;1646;52.450;13.326;2024-01-11T11:53:53;-0.90;99.90
3268;DHT22;1646;52.450;13.326;2024-01-11T11:58:52;-0.80;99.90
3268;DHT22;1646;52.450;13.326;2024-01-11T12:03:53;-0.80;99.90
3268;DHT22;1646;52.450;13.326;2024-01-11T12:08:53;-0.70;99.90
3268;DHT22;1646;52.450;13.326;2024-01-11T12:13:54;-0.70;99.90
3268;DHT22;1646;52.450;13.326;2024-01-11T12:18:55;-0.60;99.90
3268;DHT22;1646;52.450;13.326;2024-01-11T12:23:55;-0.60;99.90
3268;DHT22;1646;52.450;13.326;2024-01-11T12:28:53;-0.50;99.90
3268;DHT22;1646;52.450;13.326;2024-01-11T12:33:52;-0.50;99.90
3268;DHT22;1646;52.450;13.326;2024-01-11T12:38:52;-0.60;99.90
3268;DHT22;1646;52.450;13.326;2024-01-11T12:43:52;-0.60;99.90
3268;DHT22;1646;52.450;13.326;2024-01-11T12:48:51;-0.40;99.90
3268;DHT22;1646;52.450;13.326;2024-01-11T12:53:51;-0.40;99.90
3268;DHT22;1646;52.450;13.326;2024-01-11T12:58:51;-0.30;99.90
3268;DHT22;1646;52.450;13.326;2024-01-11T13:04:02;-0.30;99.90
3268;DHT22;1646;52.450;13.326;2024-01-11T13:09:01;-0.20;99.90
3268;DHT22;1646;52.450;13.326;2024-01-11T13:14:01;-0.30;99.90
3268;DHT22;1646;52.450;13.326;2024-01-11T13:19:03;-0.10;99.90
3268;DHT22;1646;52.450;13.326;2024-01-11T13:24:20;-0.10;99.90
3268;DHT22;1646;52.450;13.326;2024-01-11T13:29:19;-0.20;99.90
3268;DHT22;1646;52.450;13.326;2024-01-11T13:34:18;-0.20;99.90
3268;DHT22;1646;52.450;13.326;2024-01-11T13:39:16;-0.10;99.90
3268;DHT22;1646;52.450;13.326;2024-01-11T13:44:19;-0.20;99.90
3268;DHT22;1646;52.450;13.326;2024-01-11T13:49:20;-0.10;99.90
3268;DHT22;1646;52.450;13.326;2024-01-11T13:54:22;-0.20;99.90
3268;DHT22;1646;52.450;13.326;2024-01-11T13:59:22;-0.20;99.90
3268;DHT22;1646;52.450;13.326;2024-01-11T14:04:20;-0.20;99.90
3268;DHT22;1646;52.450;13.326;2024-01-11T14:09:20;-0.20;99.90
3268;DHT22;1646;52.450;13.326;2024-01-11T14:14:19;-0.30;99.90
3268;DHT22;1646;52.450;13.326;2024-01-11T14:19:19;-0.30;99.90
3268;DHT22;1646;52.450;13.326;2024-01-11T14:24:18;-0.30;99.90
3268;DHT22;1646;52.450;13.326;2024-01-11T14:29:28;-0.40;99.90
3268;DHT22;1646;52.450;13.326;2024-01-11T14:34:28;-0.50;99.90
3268;DHT22;1646;52.450;13.326;2024-01-11T14:39:27;-0.50;99.90
3268;DHT22;1646;52.450;13.326;2024-01-11T14:44:25;-0.40;99.90
3268;DHT22;1646;52.450;13.326;2024-01-11T14:49:23;-0.20;99.90
3268;DHT22;1646;52.450;13.326;2024-01-11T14:54:24;-0.10;99.90
3268;DHT22;1646;52.450;13.326;2024-01-11T14:59:24;0.00;99.90
3268;DHT22;1646;52.450;13.326;2024-01-11T15:04:22;0.00;99.90
3268;DHT22;1646;52.450;13.326;2024-01-11T15:09:21;-0.10;99.90
3268;DHT22;1646;52.450;13.326;2024-01-11T15:14:21;-0.10;99.90
3268;DHT22;1646;52.450;13.326;2024-01-11T15:19:19;0.00;99.90
3268;DHT22;1646;52.450;13.326;2024-01-11T15:24:17;0.10;99.90
3268;DHT22;1646;52.450;13.326;2024-01-11T15:29:17;0.20;99.90
3268;DHT22;1646;52.450;13.326;2024-01-11T15:34:17;0.30;99.90
3268;DHT22;1646;52.450;13.326;2024-01-11T15:39:16;0.30;99.90
3268;DHT22;1646;52.450;13.326;2024-01-11T15:44:25;0.30;99.90
3268;DHT22;1646;52.450;13.326;2024-01-11T15:49:27;0.30;99.90
3268;DHT22;1646;52.450;13.326;2024-01-11T15:54:25;0.30;99.90
3268;DHT22;1646;52.450;13.326;2024-01-11T15:59:24;0.40;99.90
3268;DHT22;1646;52.450;13.326;2024-01-11T16:04:23;0.40;99.90
3268;DHT22;1646;52.450;13.326;2024-01-11T16:09:24;0.40;99.90
3268;DHT22;1646;52.450;13.326;2024-01-11T16:14:24;0.30;99.90
3268;DHT22;1646;52.450;13.326;2024-01-11T16:19:24;0.30;99.90
3268;DHT22;1646;52.450;13.326;2024-01-11T16:24:28;0.40;99.90
3268;DHT22;1646;52.450;13.326;2024-01-11T16:29:29;0.50;99.90
3268;DHT22;1646;52.450;13.326;2024-01-11T16:34:36;0.40;99.90
3268;DHT22;1646;52.450;13.326;2024-01-11T16:39:41;0.40;99.90
3268;DHT22;1646;52.450;13.326;2024-01-11T16:44:42;0.40;99.90
3268;DHT22;1646;52.450;13.326;2024-01-11T16:49:44;0.50;99.90
3268;DHT22;1646;52.450;13.326;2024-01-11T16:54:45;0.70;99.90
3268;DHT22;1646;52.450;13.326;2024-01-11T16:59:44;0.80;99.90
3268;DHT22;1646;52.450;13.326;2024-01-11T17:04:42;0.80;99.90
3268;DHT22;1646;52.450;13.326;2024-01-11T17:09:41;0.90;99.90
3268;DHT22;1646;52.450;13.326;2024-01-11T17:14:40;0.90;99.90
3268;DHT22;1646;52.450;13.326;2024-01-11T17:19:39;0.90;99.90
3268;DHT22;1646;52.450;13.326;2024-01-11T17:24:38;0.90;99.90
3268;DHT22;1646;52.450;13.326;2024-01-11T17:29:36;0.90;99.90
3268;DHT22;1646;52.450;13.326;2024-01-11T17:34:38;1.00;99.90
3268;DHT22;1646;52.450;13.326;2024-01-11T17:39:36;1.00;99.90
3268;DHT22;1646;52.450;13.326;2024-01-11T17:44:34;1.10;99.90
3268;DHT22;1646;52.450;13.326;2024-01-11T17:49:34;1.10;99.90
3268;DHT22;1646;52.450;13.326;2024-01-11T17:54:37;1.20;99.90
3268;DHT22;1646;52.450;13.326;2024-01-11T17:59:36;1.40;99.90
3268;DHT22;1646;52.450;13.326;2024-01-11T18:04:34;1.50;99.90
3268;DHT22;1646;52.450;13.326;2024-01-11T18:09:34;1.50;99.90
3268;DHT22;1646;52.450;13.326;2024-01-11T18:14:33;1.50;99.90
3268;DHT22;1646;52.450;13.326;2024-01-11T18:19:31;1.50;99.90
3268;DHT22;1646;52.450;13.326;2024-01-11T18:24:30;1.60;99.90
3268;DHT22;1646;52.450;13.326;2024-01-11T18:29:29;1.60;99.90
3268;DHT22;1646;52.450;13.326;2024-01-11T18:34:28;1.50;99.90
3268;DHT22;1646;52.450;13.326;2024-01-11T18:39:27;1.50;99.90
3268;DHT22;1646;52.450;13.326;2024-01-11T18:44:25;1.40;99.90
3268;DHT22;1646;52.450;13.326;2024-01-11T18:49:23;1.40;99.90
3268;DHT22;1646;52.450;13.326;2024-01-11T18:54:23;1.50;99.90
3268;DHT22;1646;52.450;13.326;2024-01-11T18:59:21;1.50;99.90
3268;DHT22;1646;52.450;13.326;2024-01-11T19:04:20;1.40;99.90
3268;DHT22;1646;52.450;13.326;2024-01-11T19:09:18;1.40;99.90
3268;DHT22;1646;52.450;13.326;2024-01-11T19:14:18;1.40;99.90
3268;DHT22;1646;52.450;13.326;2024-01-11T19:19:16;1.50;99.90
3268;DHT22;1646;52.450;13.326;2024-01-11T19:24:15;1.50;99.90
3268;DHT22;1646;52.450;13.326;2024-01-11T19:29:13;1.50;99.90
3268;DHT22;1646;52.450;13.326;2024-01-11T19:34:13;1.60;99.90
3268;DHT22;1646;52.450;13.326;2024-01-11T19:39:12;1.50;99.90
3268;DHT22;1646;52.450;13.326;2024-01-11T19:44:11;1.60;99.90
3268;DHT22;1646;52.450;13.326;2024-01-11T19:49:09;1.70;99.90
3268;DHT22;1646;52.450;13.326;2024-01-11T19:54:10;1.80;99.90
3268;DHT22;1646;52.450;13.326;2024-01-11T19:59:09;1.90;99.90
3268;DHT22;1646;52.450;13.326;2024-01-11T20:04:08;1.80;99.90
3268;DHT22;1646;52.450;13.326;2024-01-11T20:09:07;1.80;99.90
3268;DHT22;1646;52.450;13.326;2024-01-11T20:14:08;1.80;99.90
3268;DHT22;1646;52.450;13.326;2024-01-11T20:19:09;1.80;99.90
3268;DHT22;1646;52.450;13.326;2024-01-11T20:24:07;2.00;99.90
3268;DHT22;1646;52.450;13.326;2024-01-11T20:29:08;2.10;99.90
3268;DHT22;1646;52.450;13.326;2024-01-11T20:34:06;2.10;99.90
3268;DHT22;1646;52.450;13.326;2024-01-11T20:39:07;2.10;99.90
3268;DHT22;1646;52.450;13.326;2024-01-11T20:44:07;2.00;99.90
3268;DHT22;1646;52.450;13.326;2024-01-11T20:49:05;2.00;99.90
3268;DHT22;1646;52.450;13.326;2024-01-11T20:54:04;2.10;99.90
3268;DHT22;1646;52.450;13.326;2024-01-11T20:59:02;2.00;99.90
3268;DHT22;1646;52.450;13.326;2024-01-11T21:04:02;2.00;99.90
3268;DHT22;1646;52.450;13.326;2024-01-11T21:09:00;2.00;99.90
3268;DHT22;1646;52.450;13.326;2024-01-11T21:13:59;2.10;99.90
3268;DHT22;1646;52.450;13.326;2024-01-11T21:18:58;2.20;99.90
3268;DHT22;1646;52.450;13.326;2024-01-11T21:23:57;2.30;99.90
3268;DHT22;1646;52.450;13.326;2024-01-11T21:28:58;2.30;99.90
3268;DHT22;1646;52.450;13.326;2024-01-11T21:33:57;2.30;99.90
3268;DHT22;1646;52.450;13.326;2024-01-11T21:38:58;2.30;99.90
3268;DHT22;1646;52.450;13.326;2024-01-11T21:44:00;2.40;99.90
3268;DHT22;1646;52.450;13.326;2024-01-11T21:48:58;2.40;99.90
3268;DHT22;1646;52.450;13.326;2024-01-11T21:53:59;2.40;99.90
3268;DHT22;1646;52.450;13.326;2024-01-11T21:58:57;2.40;99.90
3268;DHT22;1646;52.450;13.326;2024-01-11T22:03:56;2.40;99.90
3268;DHT22;1646;52.450;13.326;2024-01-11T22:08:54;2.50;99.90
3268;DHT22;1646;52.450;13.326;2024-01-11T22:13:56;2.50;99.90
3268;DHT22;1646;52.450;13.326;2024-01-11T22:18:55;2.60;99.90
3268;DHT22;1646;52.450;13.326;2024-01-11T22:23:54;2.70;99.90
3268;DHT22;1646;52.450;13.326;2024-01-11T22:28:52;2.70;99.90
3268;DHT22;1646;52.450;13.326;2024-01-11T22:33:52;2.70;99.90
3268;DHT22;1646;52.450;13.326;2024-01-11T22:38:52;2.70;99.90
3268;DHT22;1646;52.450;13.326;2024-01-11T22:43:50;2.60;99.90
3268;DHT22;1646;52.450;13.326;2024-01-11T22:48:49;2.50;99.90
3268;DHT22;1646;52.450;13.326;2024-01-11T22:53:49;2.60;99.90
3268;DHT22;1646;52.450;13.326;2024-01-11T22:58:48;2.50;99.90
3268;DHT22;1646;52.450;13.326;2024-01-11T23:03:46;2.50;99.90
3268;DHT22;1646;52.450;13.326;2024-01-11T23:08:44;2.50;99.90
3268;DHT22;1646;52.450;13.326;2024-01-11T23:13:44;2.50;99.90
3268;DHT22;1646;52.450;13.326;2024-01-11T23:18:42;2.50;99.90
3268;DHT22;1646;52.450;13.326;2024-01-11T23:23:42;2.60;99.90
3268;DHT22;1646;52.450;13.326;2024-01-11T23:28:40;2.40;99.90
3268;DHT22;1646;52.450;13.326;2024-01-11T23:33:40;2.40;99.90
3268;DHT22;1646;52.450;13.326;2024-01-11T23:38:38;2.50;99.90
3268;DHT22;1646;52.450;13.326;2024-01-11T23:43:37;2.50;99.90
3268;DHT22;1646;52.450;13.326;2024-01-11T23:48:35;2.60;99.90
3268;DHT22;1646;52.450;13.326;2024-01-11T23:53:35;2.50;99.90
3268;DHT22;1646;52.450;13.326;2024-01-11T23:58:34;2.50;99.90
